Time;durP1;ratioP1;P1;durP2;ratioP2;P2;SDS_P1;SDS_P2;PMS_P1;PMS_P2;Temp;Humidity;BMP_temperature;BMP_pressure;BME280_temperature;BME280_humidity;BME280_pressure;Samples;Min_cycle;Max_cycle;Signal;HPM_P1;HPM_P2
2023/02/15 00:01:18;;;;;;;11.80;5.75;;;-0.30;99.90;;;;;;5086233;28;20032;-77
2023/02/15 00:03:44;;;;;;;19.83;7.50;;;-0.30;99.90;;;;;;5080296;28;20028;-76
2023/02/15 00:06:10;;;;;;;71.30;9.23;;;-0.30;99.90;;;;;;5070805;28;20504;-77
2023/02/15 00:08:35;;;;;;;23.88;8.35;;;-0.40;99.90;;;;;;5069205;28;20403;-76
2023/02/15 00:11:15;;;;;;;17.10;6.80;;;-0.50;99.90;;;;;;5078244;28;20404;-76
2023/02/15 00:13:41;;;;;;;13.30;6.45;;;-0.50;99.90;;;;;;5102310;28;20168;-75
2023/02/15 00:16:12;;;;;;;15.00;6.85;;;-0.40;99.90;;;;;;5047803;28;20105;-76
2023/02/15 00:18:39;;;;;;;13.48;6.72;;;-0.40;99.90;;;;;;5080031;28;20071;-75
2023/02/15 00:21:09;;;;;;;11.75;6.35;;;-0.30;99.90;;;;;;5082136;28;20024;-76
2023/02/15 00:23:36;;;;;;;15.45;7.03;;;-0.30;99.90;;;;;;5084608;28;20036;-77
2023/02/15 00:26:10;;;;;;;13.40;7.05;;;-0.30;99.90;;;;;;5082931;28;20085;-76
2023/02/15 00:28:36;;;;;;;17.53;7.03;;;-0.30;99.90;;;;;;5086868;28;20031;-76
2023/02/15 00:31:07;;;;;;;11.55;6.75;;;-0.50;99.90;;;;;;5087039;28;20036;-76
2023/02/15 00:33:35;;;;;;;12.35;7.07;;;-0.50;99.90;;;;;;5081187;28;20033;-76
2023/02/15 00:36:02;;;;;;;14.15;6.90;;;-0.40;99.90;;;;;;5070042;28;20032;-75
2023/02/15 00:38:29;;;;;;;28.67;7.20;;;-0.30;99.90;;;;;;5080863;28;20066;-76
2023/02/15 00:40:56;;;;;;;12.23;6.53;;;-0.30;99.90;;;;;;5084086;28;20029;-77
2023/02/15 00:43:22;;;;;;;29.85;7.93;;;-0.40;99.90;;;;;;5082212;28;20115;-76
2023/02/15 00:45:48;;;;;;;12.73;6.40;;;-0.40;99.90;;;;;;5080304;28;20155;-75
2023/02/15 00:48:13;;;;;;;14.93;5.82;;;-0.40;99.90;;;;;;5072455;28;20032;-76
2023/02/15 00:50:39;;;;;;;11.82;5.47;;;-0.40;99.90;;;;;;5084111;28;20035;-75
2023/02/15 00:53:05;;;;;;;12.52;6.13;;;-0.40;99.90;;;;;;5083085;28;20028;-76
2023/02/15 00:55:31;;;;;;;13.52;6.20;;;-0.40;99.90;;;;;;5082596;28;20138;-75
2023/02/15 00:57:57;;;;;;;14.05;6.38;;;-0.40;99.90;;;;;;5061155;28;20024;-75
2023/02/15 01:00:23;;;;;;;12.13;6.18;;;-0.40;99.90;;;;;;5065419;28;20047;-76
2023/02/15 01:02:49;;;;;;;13.50;6.45;;;-0.50;99.90;;;;;;5079810;28;20025;-76
2023/02/15 01:05:15;;;;;;;11.65;6.30;;;-0.50;99.90;;;;;;5066780;28;20035;-76
2023/02/15 01:07:43;;;;;;;10.48;5.70;;;-0.50;99.90;;;;;;5066939;28;20024;-75
2023/02/15 01:10:08;;;;;;;13.05;6.18;;;-0.50;99.90;;;;;;5085632;28;20032;-76
2023/02/15 01:12:34;;;;;;;13.80;6.03;;;-0.40;99.90;;;;;;5080184;28;20016;-75
2023/02/15 01:15:00;;;;;;;12.98;6.18;;;-0.50;99.90;;;;;;5088464;28;20020;-75
2023/02/15 01:17:26;;;;;;;10.05;5.63;;;-0.50;99.90;;;;;;5080663;28;20427;-76
2023/02/15 01:19:52;;;;;;;13.98;6.65;;;-0.50;99.90;;;;;;5063877;28;20111;-76
2023/02/15 01:22:19;;;;;;;13.85;6.25;;;-0.50;99.90;;;;;;5051622;28;20044;-76
2023/02/15 01:24:45;;;;;;;13.93;7.07;;;-0.50;99.90;;;;;;5063214;28;20024;-76
2023/02/15 01:27:10;;;;;;;13.00;6.00;;;-0.50;99.90;;;;;;5076704;28;20352;-76
2023/02/15 01:29:36;;;;;;;12.98;6.38;;;-0.50;99.90;;;;;;5078837;28;20020;-76
2023/02/15 01:32:02;;;;;;;11.25;6.68;;;-0.50;99.90;;;;;;5051467;28;20094;-75
2023/02/15 01:34:29;;;;;;;12.20;6.15;;;-0.50;99.90;;;;;;5082213;28;20047;-75
2023/02/15 01:36:56;;;;;;;13.02;6.13;;;-0.60;99.90;;;;;;5082000;28;20114;-75
2023/02/15 01:39:22;;;;;;;10.40;5.70;;;-0.60;99.90;;;;;;5085414;28;20631;-76
2023/02/15 01:41:50;;;;;;;12.98;6.70;;;-0.60;99.90;;;;;;5081840;28;20025;-75
2023/02/15 01:44:47;;;;;;;13.32;5.90;;;-0.50;99.90;;;;;;5079116;28;20028;-76
2023/02/15 01:47:38;;;;;;;12.13;5.68;;;-0.50;99.90;;;;;;5078654;28;20413;-76
2023/02/15 01:50:14;;;;;;;12.98;6.13;;;-0.50;99.90;;;;;;5081655;28;20032;-76
2023/02/15 01:52:52;;;;;;;12.48;6.05;;;-0.50;99.90;;;;;;5078515;28;20119;-76
2023/02/15 01:55:19;;;;;;;14.48;5.95;;;-0.50;99.90;;;;;;5083429;28;20149;-76
2023/02/15 01:57:47;;;;;;;14.43;6.15;;;-0.50;99.90;;;;;;5061552;28;20563;-76
2023/02/15 02:00:16;;;;;;;11.23;6.25;;;-0.60;99.90;;;;;;5084659;28;20050;-76
2023/02/15 02:02:50;;;;;;;9.60;5.57;;;-0.60;99.90;;;;;;5085235;28;20027;-77
2023/02/15 02:05:16;;;;;;;10.95;5.45;;;-0.70;99.90;;;;;;5044014;28;20052;-76
2023/02/15 02:07:45;;;;;;;11.38;5.43;;;-0.70;99.90;;;;;;5075214;28;20494;-76
2023/02/15 02:10:22;;;;;;;10.70;5.57;;;-0.70;99.90;;;;;;5077857;28;20055;-77
2023/02/15 02:12:58;;;;;;;9.85;4.95;;;-0.70;99.90;;;;;;5078006;28;20029;-77
2023/02/15 02:15:49;;;;;;;12.90;5.25;;;-0.70;99.90;;;;;;5080484;28;20480;-76
2023/02/15 02:18:58;;;;;;;8.80;4.90;;;-0.90;99.90;;;;;;5059631;28;20043;-76
2023/02/15 02:21:31;;;;;;;8.25;4.53;;;-0.90;99.90;;;;;;5022159;28;20042;-76
2023/02/15 02:24:15;;;;;;;9.32;4.82;;;-0.90;99.90;;;;;;5074152;28;20048;-76
2023/02/15 02:27:03;;;;;;;9.15;4.40;;;-0.90;99.90;;;;;;5087542;28;20134;-77
2023/02/15 02:29:40;;;;;;;16.55;4.88;;;-0.90;99.90;;;;;;5083451;28;20020;-76
2023/02/15 02:32:41;;;;;;;25.90;5.55;;;-0.90;99.90;;;;;;5070851;28;20074;-77
2023/02/15 02:35:25;;;;;;;9.95;4.22;;;-0.90;99.90;;;;;;5084049;28;20024;-76
2023/02/15 02:38:14;;;;;;;9.82;4.85;;;-0.90;99.90;;;;;;5075052;28;20076;-77
2023/02/15 02:40:54;;;;;;;8.00;4.28;;;-1.00;99.90;;;;;;5070016;28;20017;-77
2023/02/15 02:43:42;;;;;;;8.20;4.63;;;-1.00;99.90;;;;;;5073047;28;20028;-76
2023/02/15 02:46:17;;;;;;;14.35;5.00;;;-1.00;99.90;;;;;;5082599;28;20111;-77
2023/02/15 02:48:43;;;;;;;11.35;4.72;;;-0.90;99.90;;;;;;5081826;28;20054;-76
2023/02/15 02:51:11;;;;;;;8.57;4.70;;;-1.00;99.90;;;;;;5076295;28;20032;-76
2023/02/15 02:53:37;;;;;;;7.43;3.95;;;-1.00;99.90;;;;;;5082516;28;20597;-76
2023/02/15 02:56:15;;;;;;;11.55;5.15;;;-1.00;99.90;;;;;;5079235;28;20118;-77
2023/02/15 02:58:44;;;;;;;8.13;4.28;;;-1.10;99.90;;;;;;5082469;28;20032;-76
2023/02/15 03:01:27;;;;;;;8.35;4.40;;;-1.10;99.90;;;;;;5083408;28;20085;-77
2023/02/15 03:04:15;;;;;;;20.13;5.60;;;-1.20;99.90;;;;;;5079079;28;20035;-76
2023/02/15 03:06:59;;;;;;;15.65;4.30;;;-1.20;99.90;;;;;;5073573;28;20066;-77
2023/02/15 03:09:44;;;;;;;7.15;4.13;;;-1.30;99.90;;;;;;5073231;28;20041;-77
2023/02/15 03:12:31;;;;;;;10.70;4.53;;;-1.30;99.90;;;;;;5075131;28;20038;-77
2023/02/15 03:15:05;;;;;;;16.75;4.18;;;-1.40;99.90;;;;;;5076537;28;20553;-77
2023/02/15 03:17:33;;;;;;;10.25;5.00;;;-1.40;99.90;;;;;;5078241;28;20173;-77
2023/02/15 03:20:05;;;;;;;8.05;4.38;;;-1.50;99.90;;;;;;5080504;28;20561;-77
2023/02/15 03:22:37;;;;;;;10.60;5.10;;;-1.40;99.90;;;;;;5053478;28;20120;-77
2023/02/15 03:25:17;;;;;;;28.33;5.45;;;-1.30;99.90;;;;;;5078696;28;20032;-77
2023/02/15 03:27:47;;;;;;;8.77;4.50;;;-1.40;99.90;;;;;;5075127;28;20025;-77
2023/02/15 03:30:16;;;;;;;12.07;4.88;;;-1.40;99.90;;;;;;5064157;28;20036;-77
2023/02/15 03:32:43;;;;;;;9.52;5.45;;;-1.40;99.90;;;;;;5078575;28;20586;-77
2023/02/15 03:35:10;;;;;;;10.75;5.20;;;-1.40;99.90;;;;;;5083147;28;20620;-77
2023/02/15 03:37:43;;;;;;;8.27;4.85;;;-1.40;99.90;;;;;;5073230;28;20040;-77
2023/02/15 03:43:12;;;;;;;9.93;5.28;;;-1.30;99.90;;;;;;5075366;28;20608;-77
2023/02/15 03:45:54;;;;;;;9.07;4.28;;;-1.30;99.90;;;;;;5083507;28;20028;-77
2023/02/15 03:48:25;;;;;;;10.07;4.97;;;-1.20;99.90;;;;;;5075736;28;20035;-77
2023/02/15 03:53:41;;;;;;;11.55;5.18;;;-1.30;99.90;;;;;;5059180;28;20037;-77
2023/02/15 03:56:06;;;;;;;8.52;4.78;;;-1.30;99.90;;;;;;5084079;28;20075;-78
2023/02/15 04:01:57;;;;;;;10.93;5.18;;;-1.30;99.90;;;;;;5079468;28;20113;-77
2023/02/15 04:04:37;;;;;;;9.75;4.82;;;-1.30;99.90;;;;;;5074585;28;20024;-77
2023/02/15 04:07:06;;;;;;;11.00;5.55;;;-1.30;99.90;;;;;;5078155;28;20043;-77
2023/02/15 04:12:17;;;;;;;9.98;5.10;;;-1.30;99.90;;;;;;5071992;28;20040;-77
2023/02/15 04:17:27;;;;;;;10.32;5.20;;;-1.30;99.90;;;;;;5078019;28;20036;-77
2023/02/15 04:25:21;;;;;;;11.20;5.55;;;-1.30;99.90;;;;;;5073042;28;20020;-77
2023/02/15 04:27:52;;;;;;;16.70;5.63;;;-1.30;99.90;;;;;;5057260;28;20399;-77
2023/02/15 04:30:22;;;;;;;10.82;5.60;;;-1.30;99.90;;;;;;5076344;28;20486;-76
2023/02/15 04:32:48;;;;;;;9.48;4.63;;;-1.30;99.90;;;;;;5084678;28;20586;-76
2023/02/15 04:35:15;;;;;;;9.32;5.00;;;-1.20;99.90;;;;;;5078971;28;20389;-76
2023/02/15 04:37:42;;;;;;;23.38;6.15;;;-1.20;99.90;;;;;;5084606;28;20132;-76
2023/02/15 04:40:10;;;;;;;26.85;5.57;;;-1.40;99.90;;;;;;5081232;28;20039;-76
2023/02/15 04:42:36;;;;;;;9.98;4.68;;;-1.40;99.90;;;;;;5075882;28;20027;-76
2023/02/15 04:45:03;;;;;;;9.63;4.25;;;-1.40;99.90;;;;;;5077602;28;20357;-76
2023/02/15 04:47:29;;;;;;;8.15;3.92;;;-1.30;99.90;;;;;;5064355;28;20111;-76
2023/02/15 04:49:54;;;;;;;7.20;3.97;;;-1.30;99.90;;;;;;5086642;28;20131;-76
2023/02/15 04:52:20;;;;;;;9.65;5.00;;;-1.30;99.90;;;;;;5061288;28;20490;-76
2023/02/15 04:54:46;;;;;;;7.80;4.13;;;-1.40;99.90;;;;;;5054245;28;20040;-76
2023/02/15 04:57:12;;;;;;;8.20;4.07;;;-1.40;99.90;;;;;;5080771;28;20070;-76
2023/02/15 04:59:38;;;;;;;8.23;4.57;;;-1.40;99.90;;;;;;5072461;28;20036;-77
2023/02/15 05:02:04;;;;;;;9.13;4.15;;;-1.40;99.90;;;;;;5066922;28;20051;-76
2023/02/15 05:04:30;;;;;;;8.52;4.60;;;-1.40;99.90;;;;;;5078577;28;20028;-76
2023/02/15 05:06:55;;;;;;;9.90;4.78;;;-1.40;99.90;;;;;;5075678;28;20035;-76
2023/02/15 05:09:21;;;;;;;7.25;3.88;;;-1.50;99.90;;;;;;5077619;28;20033;-76
2023/02/15 05:11:47;;;;;;;8.45;4.00;;;-1.50;99.90;;;;;;5077216;28;20024;-76
2023/02/15 05:14:13;;;;;;;7.38;3.92;;;-1.40;99.90;;;;;;5084617;28;20024;-78
2023/02/15 05:16:39;;;;;;;17.98;4.57;;;-1.50;99.90;;;;;;5071758;28;20042;-77
2023/02/15 05:19:05;;;;;;;26.42;4.45;;;-1.50;99.90;;;;;;5060294;28;20036;-77
2023/02/15 05:21:32;;;;;;;15.32;4.20;;;-1.60;99.90;;;;;;5084196;28;20120;-78
2023/02/15 05:23:58;;;;;;;10.20;4.30;;;-1.60;99.90;;;;;;5083397;28;20051;-78
2023/02/15 05:29:10;;;;;;;6.38;3.55;;;-1.60;99.90;;;;;;5085192;28;20122;-78
2023/02/15 05:31:37;;;;;;;5.75;3.63;;;-1.60;99.90;;;;;;5084430;28;20028;-78
2023/02/15 05:34:02;;;;;;;5.78;3.72;;;-1.60;99.90;;;;;;5077558;28;20029;-78
2023/02/15 05:36:28;;;;;;;9.10;4.88;;;-1.50;99.90;;;;;;5082645;28;20028;-78
2023/02/15 05:38:54;;;;;;;10.75;4.50;;;-1.50;99.90;;;;;;5075549;28;20032;-78
2023/02/15 05:41:20;;;;;;;19.98;4.38;;;-1.50;99.90;;;;;;5080445;28;20032;-79
2023/02/15 05:43:46;;;;;;;7.88;3.97;;;-1.60;99.90;;;;;;5082613;28;20030;-79
2023/02/15 05:46:12;;;;;;;7.78;3.70;;;-1.60;99.90;;;;;;5083071;28;20028;-78
2023/02/15 05:48:39;;;;;;;7.20;4.25;;;-1.60;99.90;;;;;;5084293;28;20038;-78
2023/02/15 05:51:16;;;;;;;6.63;3.92;;;-1.60;99.90;;;;;;5086538;28;20064;-78
2023/02/15 05:53:42;;;;;;;6.93;4.20;;;-1.50;99.90;;;;;;5079501;28;20046;-78
2023/02/15 05:56:09;;;;;;;7.10;3.90;;;-1.50;99.90;;;;;;5070355;28;20040;-78
2023/02/15 05:58:39;;;;;;;5.32;3.38;;;-1.60;99.90;;;;;;5084400;28;20077;-77
2023/02/15 06:01:10;;;;;;;9.88;4.25;;;-1.50;99.90;;;;;;5086197;28;20043;-77
2023/02/15 06:03:36;;;;;;;7.10;3.75;;;-1.60;99.90;;;;;;5089523;28;20020;-78
2023/02/15 06:06:04;;;;;;;11.38;3.70;;;-1.60;99.90;;;;;;5067885;28;20071;-78
2023/02/15 06:08:33;;;;;;;6.97;3.83;;;-1.70;99.90;;;;;;5043846;28;20476;-78
2023/02/15 06:10:59;;;;;;;8.23;4.15;;;-1.70;99.90;;;;;;5085869;28;20058;-79
2023/02/15 06:13:25;;;;;;;7.47;4.53;;;-1.60;99.90;;;;;;5085514;28;20511;-79
2023/02/15 06:15:51;;;;;;;8.95;4.80;;;-1.70;99.90;;;;;;5061291;28;20046;-78
2023/02/15 06:18:16;;;;;;;7.32;4.30;;;-1.60;99.90;;;;;;5064028;28;20431;-78
2023/02/15 06:20:44;;;;;;;8.32;4.18;;;-1.70;99.90;;;;;;5080377;28;20047;-78
2023/02/15 06:23:10;;;;;;;6.50;3.90;;;-1.60;99.90;;;;;;5085136;28;20064;-77
2023/02/15 06:25:36;;;;;;;8.63;3.83;;;-1.60;99.90;;;;;;5076799;28;20052;-78
2023/02/15 06:28:02;;;;;;;7.30;4.15;;;-1.60;99.90;;;;;;5082608;28;20397;-78
2023/02/15 06:30:28;;;;;;;8.35;4.68;;;-1.60;99.90;;;;;;5085885;28;20036;-78
2023/02/15 06:32:53;;;;;;;8.05;4.55;;;-1.60;99.90;;;;;;5075096;28;20515;-77
2023/02/15 06:35:19;;;;;;;8.35;4.13;;;-1.60;99.90;;;;;;5081154;28;20036;-78
2023/02/15 06:37:46;;;;;;;8.20;4.63;;;-1.60;99.90;;;;;;5087681;28;20043;-78
2023/02/15 06:40:12;;;;;;;8.95;4.47;;;-1.60;99.90;;;;;;5076400;28;20059;-78
2023/02/15 06:42:38;;;;;;;9.48;4.05;;;-1.60;99.90;;;;;;5086169;28;20141;-78
2023/02/15 06:45:04;;;;;;;13.80;4.20;;;-1.60;99.90;;;;;;5062460;28;20404;-79
2023/02/15 06:47:33;;;;;;;6.88;4.25;;;-1.70;99.90;;;;;;5079584;28;20021;-78
2023/02/15 06:49:59;;;;;;;7.72;4.15;;;-1.70;99.90;;;;;;5064383;28;20537;-78
2023/02/15 06:52:24;;;;;;;8.93;4.50;;;-1.80;99.90;;;;;;5076701;28;20042;-77
2023/02/15 06:54:50;;;;;;;8.50;4.50;;;-1.80;99.90;;;;;;5059164;28;20036;-78
2023/02/15 06:57:16;;;;;;;8.88;4.20;;;-1.80;99.90;;;;;;5079464;28;20551;-79
2023/02/15 06:59:42;;;;;;;8.20;4.50;;;-1.70;99.90;;;;;;5066179;28;20079;-78
2023/02/15 07:02:12;;;;;;;8.85;4.13;;;-1.70;99.90;;;;;;5086208;28;20643;-79
2023/02/15 07:04:38;;;;;;;7.57;3.80;;;-1.70;99.90;;;;;;5078164;28;20111;-78
2023/02/15 07:07:04;;;;;;;8.50;4.07;;;-1.70;99.90;;;;;;5079192;28;20155;-78
2023/02/15 07:09:30;;;;;;;8.10;4.00;;;-1.60;99.90;;;;;;5082555;28;20085;-78
2023/02/15 07:14:40;;;;;;;8.85;4.55;;;-1.50;99.90;;;;;;5083536;28;20028;-77
2023/02/15 07:17:06;;;;;;;7.63;4.30;;;-1.50;99.90;;;;;;5081093;28;20036;-76
2023/02/15 07:19:32;;;;;;;8.88;4.88;;;-1.50;99.90;;;;;;5079078;28;20052;-76
2023/02/15 07:21:58;;;;;;;8.48;4.43;;;-1.40;99.90;;;;;;5083631;28;20681;-77
2023/02/15 07:24:24;;;;;;;8.82;4.20;;;-1.50;99.90;;;;;;5080055;28;20684;-77
2023/02/15 07:26:49;;;;;;;7.32;3.78;;;-1.50;99.90;;;;;;5081484;28;20063;-76
2023/02/15 07:29:15;;;;;;;6.57;3.72;;;-1.50;99.90;;;;;;5084113;28;20026;-76
2023/02/15 07:31:43;;;;;;;6.20;3.65;;;-1.50;99.90;;;;;;5083314;28;20028;-76
2023/02/15 07:34:08;;;;;;;8.43;3.65;;;-1.50;99.90;;;;;;5077811;28;20043;-76
2023/02/15 07:36:34;;;;;;;6.35;3.75;;;-1.40;99.90;;;;;;5082506;28;20033;-76
2023/02/15 07:39:00;;;;;;;7.50;3.92;;;-1.40;99.90;;;;;;5078768;28;20032;-76
2023/02/15 07:41:26;;;;;;;7.57;4.20;;;-1.40;99.90;;;;;;5076995;28;20067;-76
2023/02/15 07:43:51;;;;;;;7.45;3.83;;;-1.50;99.90;;;;;;5076932;28;20107;-77
2023/02/15 07:46:17;;;;;;;6.95;4.15;;;-1.50;99.90;;;;;;5080148;28;20021;-76
2023/02/15 07:48:44;;;;;;;7.32;4.20;;;-1.50;99.90;;;;;;5080993;28;20111;-77
2023/02/15 07:51:11;;;;;;;8.82;4.80;;;-1.60;99.90;;;;;;5082890;28;20082;-76
2023/02/15 07:53:38;;;;;;;7.63;4.43;;;-1.50;99.90;;;;;;5082283;28;20032;-76
2023/02/15 07:56:06;;;;;;;8.65;4.80;;;-1.60;99.90;;;;;;5078512;28;20036;-78
2023/02/15 07:58:52;;;;;;;9.02;5.07;;;-1.60;99.90;;;;;;5077181;28;20081;-76
2023/02/15 08:01:19;;;;;;;;;;;-1.60;99.90;;;;;;5064553;28;20536;-77
2023/02/15 08:03:44;;;;;;;9.13;5.03;;;-1.60;99.90;;;;;;5077525;28;19958;-76
2023/02/15 08:06:12;;;;;;;10.13;4.78;;;-1.50;99.90;;;;;;5080063;28;20028;-77
2023/02/15 08:08:39;;;;;;;8.15;4.93;;;-1.50;99.90;;;;;;5070533;28;20584;-76
2023/02/15 08:11:25;;;;;;;9.82;5.25;;;-1.50;99.90;;;;;;5084368;28;20093;-77
2023/02/15 08:14:06;;;;;;;9.05;4.97;;;-1.40;99.90;;;;;;5086093;28;20081;-76
2023/02/15 08:16:36;;;;;;;8.10;4.80;;;-1.40;99.90;;;;;;5079941;28;20094;-77
2023/02/15 08:19:12;;;;;;;10.00;5.53;;;-1.20;99.90;;;;;;5061456;28;20567;-77
2023/02/15 08:21:41;;;;;;;8.35;4.60;;;-1.10;99.90;;;;;;5083540;28;20373;-76
2023/02/15 08:24:08;;;;;;;8.15;4.45;;;-1.00;99.90;;;;;;5082047;28;20056;-77
2023/02/15 08:26:35;;;;;;;9.52;4.32;;;-1.00;99.90;;;;;;5081705;28;20027;-77
2023/02/15 08:29:02;;;;;;;7.55;4.55;;;-1.00;99.90;;;;;;5069648;28;20028;-76
2023/02/15 08:31:28;;;;;;;11.20;5.25;;;-0.90;99.90;;;;;;5082586;28;20086;-76
2023/02/15 08:33:56;;;;;;;10.48;5.78;;;-0.80;99.90;;;;;;5081527;28;20111;-77
2023/02/15 08:36:24;;;;;;;9.13;4.97;;;-0.80;99.90;;;;;;5077985;28;20039;-76
2023/02/15 08:38:50;;;;;;;9.25;5.18;;;-0.70;99.90;;;;;;5090987;28;20515;-76
2023/02/15 08:41:20;;;;;;;8.40;4.93;;;-0.60;99.90;;;;;;5084423;28;20028;-77
2023/02/15 08:43:49;;;;;;;9.15;5.10;;;-0.60;99.90;;;;;;5079751;28;20491;-76
2023/02/15 08:46:16;;;;;;;8.13;4.45;;;-0.60;99.90;;;;;;5084191;28;20032;-76
2023/02/15 08:48:42;;;;;;;8.70;5.07;;;-0.60;99.90;;;;;;5070465;28;20071;-77
2023/02/15 08:51:20;;;;;;;9.93;5.20;;;-0.60;99.90;;;;;;5079352;28;20060;-76
2023/02/15 08:53:51;;;;;;;8.27;5.05;;;-0.60;99.90;;;;;;5053167;28;20039;-76
2023/02/15 08:56:19;;;;;;;10.05;5.97;;;-0.50;99.90;;;;;;5079352;28;20056;-75
2023/02/15 08:58:45;;;;;;;9.45;5.38;;;-0.40;99.90;;;;;;5084073;28;20029;-75
2023/02/15 09:01:14;;;;;;;10.43;5.85;;;-0.30;99.90;;;;;;5094581;28;20094;-75
2023/02/15 09:03:40;;;;;;;9.23;5.43;;;-0.40;99.90;;;;;;5084056;28;20407;-75
2023/02/15 09:06:06;;;;;;;8.20;5.68;;;-0.30;99.90;;;;;;5081672;28;20032;-75
2023/02/15 09:08:32;;;;;;;9.07;4.82;;;-0.30;99.90;;;;;;5079208;28;20575;-75
2023/02/15 09:11:11;;;;;;;8.95;5.70;;;-0.20;99.90;;;;;;5079544;28;20221;-75
2023/02/15 09:13:38;;;;;;;10.63;6.15;;;-0.10;99.90;;;;;;5080773;28;20452;-75
2023/02/15 09:16:07;;;;;;;10.25;6.53;;;0.00;99.90;;;;;;5081946;28;20032;-75
2023/02/15 09:18:36;;;;;;;10.07;5.95;;;0.00;99.90;;;;;;5074582;28;20033;-75
2023/02/15 09:21:07;;;;;;;10.43;5.50;;;-0.10;99.90;;;;;;5079891;28;20028;-75
2023/02/15 09:23:33;;;;;;;8.23;5.07;;;-0.10;99.90;;;;;;5082578;28;20036;-75
2023/02/15 09:26:03;;;;;;;8.75;5.38;;;-0.10;99.90;;;;;;5083621;28;20028;-75
2023/02/15 09:28:29;;;;;;;7.82;5.57;;;0.00;99.90;;;;;;5075844;28;20031;-75
2023/02/15 09:30:55;;;;;;;12.07;6.43;;;0.10;99.90;;;;;;5085288;28;20032;-75
2023/02/15 09:33:21;;;;;;;9.88;6.00;;;0.20;99.90;;;;;;5080982;28;20105;-75
2023/02/15 09:35:47;;;;;;;10.45;6.93;;;0.30;99.90;;;;;;5079124;28;20028;-75
2023/02/15 09:38:14;;;;;;;11.60;6.40;;;0.30;99.90;;;;;;5076480;28;20027;-75
2023/02/15 09:40:49;;;;;;;12.75;7.15;;;0.40;99.90;;;;;;5081204;28;20039;-75
2023/02/15 09:43:35;;;;;;;10.40;6.00;;;0.60;99.90;;;;;;5084736;28;20052;-75
2023/02/15 09:46:34;;;;;;;10.75;6.40;;;0.70;99.90;;;;;;5072491;28;20032;-75
2023/02/15 09:49:32;;;;;;;12.05;7.32;;;0.90;99.90;;;;;;5071544;28;20089;-75
2023/02/15 09:52:26;;;;;;;10.18;6.65;;;0.90;99.90;;;;;;5037558;28;20172;-75
2023/02/15 09:55:06;;;;;;;10.05;6.60;;;0.90;99.90;;;;;;5087344;28;20118;-75
2023/02/15 09:57:32;;;;;;;10.75;6.85;;;0.90;99.90;;;;;;5082963;28;20028;-75
2023/02/15 10:00:20;;;;;;;11.85;7.45;;;1.10;99.90;;;;;;5078371;28;20027;-75
2023/02/15 10:02:46;;;;;;;14.23;7.00;;;1.20;99.90;;;;;;5078084;28;20050;-75
2023/02/15 10:06:02;;;;;;;11.70;7.43;;;1.30;99.90;;;;;;5081850;28;20024;-75
2023/02/15 10:08:47;;;;;;;13.68;7.65;;;1.30;99.90;;;;;;5059341;28;20046;-75
2023/02/15 10:11:40;;;;;;;11.90;7.53;;;1.20;99.90;;;;;;5085954;28;20039;-76
2023/02/15 10:14:09;;;;;;;11.10;7.20;;;1.20;99.90;;;;;;5076407;28;20028;-75
2023/02/15 10:16:53;;;;;;;13.63;7.85;;;1.30;99.90;;;;;;5082145;28;20082;-76
2023/02/15 10:19:30;;;;;;;11.23;6.97;;;1.30;99.90;;;;;;5079362;28;20446;-75
2023/02/15 10:22:11;;;;;;;11.88;6.63;;;1.30;99.90;;;;;;5085574;28;20108;-76
2023/02/15 10:24:43;;;;;;;12.60;6.88;;;1.40;99.90;;;;;;5079228;28;20028;-75
2023/02/15 10:27:18;;;;;;;9.63;5.95;;;1.30;99.90;;;;;;5083434;28;20052;-75
2023/02/15 10:30:08;;;;;;;9.70;6.10;;;1.30;99.90;;;;;;5085363;28;20095;-75
2023/02/15 10:32:47;;;;;;;11.80;7.10;;;1.40;99.90;;;;;;5086729;28;20054;-75
2023/02/15 10:35:27;;;;;;;9.93;6.60;;;1.40;99.90;;;;;;5070918;28;20146;-75
2023/02/15 10:38:17;;;;;;;11.30;6.63;;;1.50;99.90;;;;;;5087998;28;20051;-75
2023/02/15 10:41:19;;;;;;;12.05;6.95;;;1.50;99.90;;;;;;5079610;28;20697;-75
2023/02/15 10:44:10;;;;;;;11.73;6.28;;;1.50;99.90;;;;;;5086096;28;20016;-75
2023/02/15 10:47:13;;;;;;;11.07;6.55;;;1.60;99.90;;;;;;5074897;28;20038;-76
2023/02/15 10:50:03;;;;;;;12.07;6.80;;;1.70;99.90;;;;;;5088173;28;20028;-76
2023/02/15 10:52:40;;;;;;;11.02;6.65;;;1.90;99.90;;;;;;5084809;28;20032;-75
2023/02/15 10:55:36;;;;;;;12.27;6.90;;;1.90;99.90;;;;;;5051772;28;20121;-75
2023/02/15 10:58:19;;;;;;;13.60;7.05;;;1.90;99.90;;;;;;5087013;28;20020;-75
2023/02/15 11:01:00;;;;;;;13.52;6.90;;;1.90;99.90;;;;;;5077138;28;20070;-76
2023/02/15 11:04:01;;;;;;;11.63;6.57;;;1.90;99.90;;;;;;5083282;28;20031;-75
2023/02/15 11:06:27;;;;;;;14.00;7.03;;;1.90;99.90;;;;;;5080913;28;20115;-75
2023/02/15 11:09:01;;;;;;;14.25;7.85;;;2.00;99.90;;;;;;5084276;28;20564;-75
2023/02/15 11:11:34;;;;;;;14.00;8.05;;;2.00;99.90;;;;;;5082180;28;20031;-75
2023/02/15 11:14:05;;;;;;;16.65;8.35;;;2.00;99.90;;;;;;5076778;28;20403;-75
2023/02/15 11:16:39;;;;;;;14.45;7.63;;;2.00;99.90;;;;;;5080268;28;20041;-76
2023/02/15 11:19:17;;;;;;;14.77;7.90;;;2.10;99.90;;;;;;5084143;28;20024;-75
2023/02/15 11:21:46;;;;;;;12.95;7.15;;;2.10;99.90;;;;;;5078188;28;20032;-75
2023/02/15 11:24:18;;;;;;;15.40;8.38;;;2.10;99.90;;;;;;5082155;28;20023;-75
2023/02/15 11:26:53;;;;;;;15.07;8.50;;;2.10;99.90;;;;;;5082899;28;20065;-75
2023/02/15 11:29:43;;;;;;;15.32;9.15;;;2.10;99.90;;;;;;5081534;28;20032;-75
2023/02/15 11:32:24;;;;;;;12.32;7.88;;;2.10;99.90;;;;;;5084977;28;20576;-75
2023/02/15 11:35:01;;;;;;;14.98;8.02;;;2.00;99.90;;;;;;5078078;28;20025;-75
2023/02/15 11:37:58;;;;;;;14.38;8.55;;;2.10;99.90;;;;;;5082008;28;20074;-75
2023/02/15 11:40:39;;;;;;;16.35;8.52;;;2.20;99.90;;;;;;5058456;28;20660;-75
2023/02/15 11:43:17;;;;;;;14.10;8.20;;;2.30;99.90;;;;;;5084463;28;20036;-75
2023/02/15 11:45:45;;;;;;;15.75;8.43;;;2.40;99.90;;;;;;5087838;28;20055;-75
2023/02/15 11:48:13;;;;;;;15.20;8.75;;;2.40;99.90;;;;;;5087095;28;20534;-75
2023/02/15 11:50:40;;;;;;;16.30;9.38;;;2.50;99.90;;;;;;5082759;28;20501;-75
2023/02/15 11:53:15;;;;;;;13.88;7.72;;;2.50;99.90;;;;;;5086297;28;20115;-75
2023/02/15 11:55:46;;;;;;;14.65;8.95;;;2.60;99.90;;;;;;5086600;28;20532;-75
2023/02/15 11:58:30;;;;;;;14.98;8.77;;;2.60;99.90;;;;;;5090901;28;20119;-75
2023/02/15 12:01:13;;;;;;;15.00;9.15;;;2.60;99.90;;;;;;5085183;28;20146;-75
2023/02/15 12:03:52;;;;;;;15.15;8.38;;;2.60;99.90;;;;;;5078404;28;20067;-75
2023/02/15 12:06:27;;;;;;;15.90;8.45;;;2.60;99.90;;;;;;5087288;28;20044;-75
2023/02/15 12:09:24;;;;;;;15.00;8.55;;;2.60;99.90;;;;;;5077890;28;20020;-75
2023/02/15 12:11:49;;;;;;;15.70;8.60;;;2.60;99.90;;;;;;5084391;28;20028;-75
2023/02/15 12:14:15;;;;;;;16.75;8.75;;;2.70;99.90;;;;;;5091832;28;20115;-75
2023/02/15 12:16:53;;;;;;;14.45;8.40;;;2.70;99.90;;;;;;5080666;28;20130;-75
2023/02/15 12:19:32;;;;;;;17.33;9.60;;;2.80;99.90;;;;;;5090193;28;20544;-75
2023/02/15 12:22:01;;;;;;;14.95;8.60;;;2.80;99.90;;;;;;5084861;28;20040;-75
2023/02/15 12:24:34;;;;;;;15.00;8.32;;;2.80;99.90;;;;;;5063220;28;20505;-75
2023/02/15 12:27:34;;;;;;;13.90;8.05;;;2.90;99.90;;;;;;5079801;28;20073;-75
2023/02/15 12:30:17;;;;;;;17.48;9.15;;;2.90;99.90;;;;;;5076984;28;20036;-75
2023/02/15 12:32:53;;;;;;;15.73;8.80;;;2.90;99.90;;;;;;5084022;28;20020;-75
2023/02/15 12:35:36;;;;;;;18.35;9.20;;;3.00;99.90;;;;;;5081494;28;20044;-75
2023/02/15 12:38:23;;;;;;;15.85;8.85;;;3.00;99.90;;;;;;5077945;28;20046;-76
2023/02/15 12:41:04;;;;;;;15.57;8.73;;;3.10;99.90;;;;;;5082593;28;20039;-75
2023/02/15 12:43:34;;;;;;;14.93;9.07;;;3.10;99.90;;;;;;5075153;28;20058;-75
2023/02/15 12:46:23;;;;;;;17.13;9.57;;;3.10;99.90;;;;;;5067903;28;20111;-75
2023/02/15 12:49:17;;;;;;;19.50;8.68;;;3.20;99.90;;;;;;5071793;28;20041;-75
2023/02/15 12:51:44;;;;;;;16.08;8.77;;;3.20;99.90;;;;;;5072700;28;20062;-75
2023/02/15 12:54:28;;;;;;;16.52;9.20;;;3.30;99.90;;;;;;5083747;28;20028;-75
2023/02/15 12:56:54;;;;;;;15.40;9.55;;;3.30;99.90;;;;;;5067017;28;20033;-75
2023/02/15 12:59:20;;;;;;;17.55;9.80;;;3.40;99.90;;;;;;5076680;28;20058;-75
2023/02/15 13:01:47;;;;;;;17.35;9.77;;;3.40;99.90;;;;;;5079285;28;20403;-75
2023/02/15 13:04:25;;;;;;;16.90;9.23;;;3.40;99.90;;;;;;5078135;28;20039;-75
2023/02/15 13:06:53;;;;;;;17.50;9.85;;;3.40;99.90;;;;;;5080003;28;20438;-75
2023/02/15 13:09:25;;;;;;;16.90;9.60;;;3.40;99.90;;;;;;5078017;28;20024;-75
2023/02/15 13:11:51;;;;;;;18.45;9.80;;;3.40;99.90;;;;;;5081757;28;20107;-75
2023/02/15 13:14:31;;;;;;;19.45;9.90;;;3.40;99.90;;;;;;5085106;28;20603;-75
2023/02/15 13:17:00;;;;;;;17.98;9.40;;;3.40;99.90;;;;;;5079827;28;20068;-74
2023/02/15 13:19:41;;;;;;;16.65;10.07;;;3.40;99.90;;;;;;5083334;28;20771;-75
2023/02/15 13:22:16;;;;;;;17.73;10.30;;;3.50;99.90;;;;;;5082578;28;20020;-75
2023/02/15 13:25:01;;;;;;;17.08;9.32;;;3.50;99.90;;;;;;5065529;28;20120;-75
2023/02/15 13:27:42;;;;;;;18.93;9.93;;;3.50;99.90;;;;;;5075301;28;20493;-75
2023/02/15 13:30:21;;;;;;;17.15;9.48;;;3.50;99.90;;;;;;5077467;28;20277;-75
2023/02/15 13:32:49;;;;;;;15.73;9.20;;;3.50;99.90;;;;;;5066594;28;20598;-75
2023/02/15 13:35:18;;;;;;;16.30;9.57;;;3.50;99.90;;;;;;5061128;28;20043;-74